Brohman, Michigan
Current Conditions -  °F | °C
As of 5:34 AM on Thursday 27 Nov 2014 (Local Time) from KRQB Reporting Station
Light Snow Light Snow  
Wind Chill: 21°   Ceiling: 4600
Heat Index: 26°   Visibility: 4mi
Dew Point: 25°   Wind: 5mph
Humidity: 94%   Direction: 300°WNW
Pressure: 30.12"   Gusts: NA
Location:  43.69°N, 85.82°W
Report Text: KRQB 271034Z AUTO 30004KT 4SM -SN BKN046 BKN050 OVC060 M03/M04 A3012 RMK AO2 T10311040
Loading
Personal Weather Stations






























Interactive Weather Map New forecast layout! Learn more

10-Day Weather Forecast

Advertisements
Track Severe Weather on mobile